sensor_id;sensor_type;location;lat;lon;timestamp;temperature;humidity
37998;DHT22;24079;51.824;4.682;2022-11-27T00:01:37;7.90;99.90
37998;DHT22;24079;51.824;4.682;2022-11-27T00:04:04;7.90;99.90
37998;DHT22;24079;51.824;4.682;2022-11-27T00:06:31;7.90;99.90
37998;DHT22;24079;51.824;4.682;2022-11-27T00:08:59;7.90;99.90
37998;DHT22;24079;51.824;4.682;2022-11-27T00:11:26;7.90;99.90
37998;DHT22;24079;51.824;4.682;2022-11-27T00:13:51;7.90;99.90
37998;DHT22;24079;51.824;4.682;2022-11-27T00:16:18;7.90;99.90
37998;DHT22;24079;51.824;4.682;2022-11-27T00:18:44;7.90;99.90
37998;DHT22;24079;51.824;4.682;2022-11-27T00:21:20;7.90;99.90
37998;DHT22;24079;51.824;4.682;2022-11-27T00:23:49;7.80;99.90
37998;DHT22;24079;51.824;4.682;2022-11-27T00:26:15;7.80;99.90
37998;DHT22;24079;51.824;4.682;2022-11-27T00:28:41;7.80;99.90
37998;DHT22;24079;51.824;4.682;2022-11-27T00:31:22;7.80;99.90
37998;DHT22;24079;51.824;4.682;2022-11-27T00:33:56;7.80;99.90
37998;DHT22;24079;51.824;4.682;2022-11-27T00:36:22;7.80;99.90
37998;DHT22;24079;51.824;4.682;2022-11-27T00:38:47;7.80;99.90
37998;DHT22;24079;51.824;4.682;2022-11-27T00:41:16;7.80;99.90
37998;DHT22;24079;51.824;4.682;2022-11-27T00:43:42;7.80;99.90
37998;DHT22;24079;51.824;4.682;2022-11-27T00:46:07;7.80;99.90
37998;DHT22;24079;51.824;4.682;2022-11-27T00:48:33;7.80;99.90
37998;DHT22;24079;51.824;4.682;2022-11-27T00:51:05;7.80;99.90
37998;DHT22;24079;51.824;4.682;2022-11-27T00:53:31;7.70;99.90
37998;DHT22;24079;51.824;4.682;2022-11-27T00:55:58;7.70;99.90
37998;DHT22;24079;51.824;4.682;2022-11-27T00:58:24;7.80;99.90
37998;DHT22;24079;51.824;4.682;2022-11-27T01:00:58;7.70;99.90
37998;DHT22;24079;51.824;4.682;2022-11-27T01:03:24;7.80;99.90
37998;DHT22;24079;51.824;4.682;2022-11-27T01:05:51;7.80;99.90
37998;DHT22;24079;51.824;4.682;2022-11-27T01:08:17;7.70;99.90
37998;DHT22;24079;51.824;4.682;2022-11-27T01:10:56;7.80;99.90
37998;DHT22;24079;51.824;4.682;2022-11-27T01:13:26;7.80;99.90
37998;DHT22;24079;51.824;4.682;2022-11-27T01:16:08;7.80;99.90
37998;DHT22;24079;51.824;4.682;2022-11-27T01:18:36;7.80;99.90
37998;DHT22;24079;51.824;4.682;2022-11-27T01:21:02;7.80;99.90
37998;DHT22;24079;51.824;4.682;2022-11-27T01:23:28;7.80;99.90
37998;DHT22;24079;51.824;4.682;2022-11-27T01:25:54;7.80;99.90
37998;DHT22;24079;51.824;4.682;2022-11-27T01:28:21;7.80;99.90
37998;DHT22;24079;51.824;4.682;2022-11-27T01:30:48;7.80;99.90
37998;DHT22;24079;51.824;4.682;2022-11-27T01:33:14;7.80;99.90
37998;DHT22;24079;51.824;4.682;2022-11-27T01:35:40;7.80;99.90
37998;DHT22;24079;51.824;4.682;2022-11-27T01:38:05;7.80;99.90
37998;DHT22;24079;51.824;4.682;2022-11-27T01:40:31;7.80;99.90
37998;DHT22;24079;51.824;4.682;2022-11-27T01:42:56;7.80;99.90
37998;DHT22;24079;51.824;4.682;2022-11-27T01:45:22;7.80;99.90
37998;DHT22;24079;51.824;4.682;2022-11-27T01:47:59;7.80;99.90
37998;DHT22;24079;51.824;4.682;2022-11-27T01:50:29;7.80;99.90
37998;DHT22;24079;51.824;4.682;2022-11-27T01:53:02;7.80;99.90
37998;DHT22;24079;51.824;4.682;2022-11-27T01:55:34;7.80;99.90
37998;DHT22;24079;51.824;4.682;2022-11-27T01:58:08;7.80;99.90
37998;DHT22;24079;51.824;4.682;2022-11-27T02:00:35;7.80;99.90
37998;DHT22;24079;51.824;4.682;2022-11-27T02:03:01;7.80;99.90
37998;DHT22;24079;51.824;4.682;2022-11-27T02:05:27;7.80;99.90
37998;DHT22;24079;51.824;4.682;2022-11-27T02:07:55;7.70;99.90
37998;DHT22;24079;51.824;4.682;2022-11-27T02:13:38;7.70;99.90
37998;DHT22;24079;51.824;4.682;2022-11-27T02:16:18;7.80;99.90
37998;DHT22;24079;51.824;4.682;2022-11-27T02:18:59;7.80;99.90
37998;DHT22;24079;51.824;4.682;2022-11-27T02:29:44;7.80;99.90
37998;DHT22;24079;51.824;4.682;2022-11-27T02:37:49;7.90;99.90
37998;DHT22;24079;51.824;4.682;2022-11-27T02:40:37;7.90;99.90
37998;DHT22;24079;51.824;4.682;2022-11-27T02:43:08;7.90;99.90
37998;DHT22;24079;51.824;4.682;2022-11-27T02:45:40;7.90;99.90
37998;DHT22;24079;51.824;4.682;2022-11-27T02:48:07;8.00;99.90
37998;DHT22;24079;51.824;4.682;2022-11-27T02:50:35;7.90;99.90
37998;DHT22;24079;51.824;4.682;2022-11-27T02:53:09;8.00;99.90
37998;DHT22;24079;51.824;4.682;2022-11-27T02:55:37;8.00;99.90
37998;DHT22;24079;51.824;4.682;2022-11-27T02:58:08;8.00;99.90
37998;DHT22;24079;51.824;4.682;2022-11-27T03:00:36;8.00;99.90
37998;DHT22;24079;51.824;4.682;2022-11-27T03:03:06;8.00;99.90
37998;DHT22;24079;51.824;4.682;2022-11-27T03:05:36;8.00;99.90
37998;DHT22;24079;51.824;4.682;2022-11-27T03:08:07;8.10;99.90
37998;DHT22;24079;51.824;4.682;2022-11-27T03:11:03;8.00;99.90
37998;DHT22;24079;51.824;4.682;2022-11-27T03:13:32;8.00;99.90
37998;DHT22;24079;51.824;4.682;2022-11-27T03:19:07;8.00;99.90
37998;DHT22;24079;51.824;4.682;2022-11-27T03:21:45;8.00;99.90
37998;DHT22;24079;51.824;4.682;2022-11-27T03:24:12;8.00;99.90
37998;DHT22;24079;51.824;4.682;2022-11-27T03:26:38;8.00;99.90
37998;DHT22;24079;51.824;4.682;2022-11-27T03:29:08;8.00;99.90
37998;DHT22;24079;51.824;4.682;2022-11-27T03:31:35;8.00;99.90
37998;DHT22;24079;51.824;4.682;2022-11-27T03:34:01;8.00;99.90
37998;DHT22;24079;51.824;4.682;2022-11-27T03:36:27;8.00;99.90
37998;DHT22;24079;51.824;4.682;2022-11-27T03:38:53;8.10;99.90
37998;DHT22;24079;51.824;4.682;2022-11-27T03:57:39;8.10;99.90
37998;DHT22;24079;51.824;4.682;2022-11-27T04:00:09;8.10;99.90
37998;DHT22;24079;51.824;4.682;2022-11-27T04:02:42;8.10;99.90
37998;DHT22;24079;51.824;4.682;2022-11-27T04:05:09;8.10;99.90
37998;DHT22;24079;51.824;4.682;2022-11-27T04:07:35;8.10;99.90
37998;DHT22;24079;51.824;4.682;2022-11-27T04:10:00;8.00;99.90
37998;DHT22;24079;51.824;4.682;2022-11-27T04:12:26;8.10;99.90
37998;DHT22;24079;51.824;4.682;2022-11-27T04:14:51;8.10;99.90
37998;DHT22;24079;51.824;4.682;2022-11-27T04:17:17;8.10;99.90
37998;DHT22;24079;51.824;4.682;2022-11-27T04:19:42;8.10;99.90
37998;DHT22;24079;51.824;4.682;2022-11-27T04:22:08;8.10;99.90
37998;DHT22;24079;51.824;4.682;2022-11-27T04:24:33;8.10;99.90
37998;DHT22;24079;51.824;4.682;2022-11-27T04:26:59;8.00;99.90
37998;DHT22;24079;51.824;4.682;2022-11-27T04:29:25;8.10;99.90
37998;DHT22;24079;51.824;4.682;2022-11-27T04:31:50;8.10;99.90
37998;DHT22;24079;51.824;4.682;2022-11-27T04:34:19;8.10;99.90
37998;DHT22;24079;51.824;4.682;2022-11-27T04:36:44;8.00;99.90
37998;DHT22;24079;51.824;4.682;2022-11-27T04:39:11;8.00;99.90
37998;DHT22;24079;51.824;4.682;2022-11-27T04:41:37;8.00;99.90
37998;DHT22;24079;51.824;4.682;2022-11-27T04:44:03;8.00;99.90
37998;DHT22;24079;51.824;4.682;2022-11-27T04:46:30;7.90;99.90
37998;DHT22;24079;51.824;4.682;2022-11-27T04:48:55;7.90;99.90
37998;DHT22;24079;51.824;4.682;2022-11-27T04:51:21;7.90;99.90
37998;DHT22;24079;51.824;4.682;2022-11-27T04:53:47;7.90;99.90
37998;DHT22;24079;51.824;4.682;2022-11-27T04:56:13;7.90;99.90
37998;DHT22;24079;51.824;4.682;2022-11-27T04:58:38;7.80;99.90
37998;DHT22;24079;51.824;4.682;2022-11-27T05:01:06;7.90;99.90
37998;DHT22;24079;51.824;4.682;2022-11-27T05:03:31;7.80;99.90
37998;DHT22;24079;51.824;4.682;2022-11-27T05:05:57;7.70;99.90
37998;DHT22;24079;51.824;4.682;2022-11-27T05:08:24;7.70;99.90
37998;DHT22;24079;51.824;4.682;2022-11-27T05:11:11;7.70;99.90
37998;DHT22;24079;51.824;4.682;2022-11-27T05:13:37;7.80;99.90
37998;DHT22;24079;51.824;4.682;2022-11-27T05:16:03;7.70;99.90
37998;DHT22;24079;51.824;4.682;2022-11-27T05:18:29;7.80;99.90
37998;DHT22;24079;51.824;4.682;2022-11-27T05:21:13;7.80;99.90
37998;DHT22;24079;51.824;4.682;2022-11-27T05:23:38;7.80;99.90
37998;DHT22;24079;51.824;4.682;2022-11-27T05:26:04;7.80;99.90
37998;DHT22;24079;51.824;4.682;2022-11-27T05:28:29;7.70;99.90
37998;DHT22;24079;51.824;4.682;2022-11-27T05:30:55;7.70;99.90
37998;DHT22;24079;51.824;4.682;2022-11-27T05:33:20;7.70;99.90
37998;DHT22;24079;51.824;4.682;2022-11-27T05:35:46;7.70;99.90
37998;DHT22;24079;51.824;4.682;2022-11-27T05:38:12;7.60;99.90
37998;DHT22;24079;51.824;4.682;2022-11-27T05:40:38;7.70;99.90
37998;DHT22;24079;51.824;4.682;2022-11-27T05:43:03;7.70;99.90
37998;DHT22;24079;51.824;4.682;2022-11-27T05:45:29;7.70;99.90
37998;DHT22;24079;51.824;4.682;2022-11-27T05:47:55;7.60;99.90
37998;DHT22;24079;51.824;4.682;2022-11-27T05:50:20;7.70;99.90
37998;DHT22;24079;51.824;4.682;2022-11-27T05:52:46;7.70;99.90
37998;DHT22;24079;51.824;4.682;2022-11-27T05:55:11;7.70;99.90
37998;DHT22;24079;51.824;4.682;2022-11-27T05:57:37;7.70;99.90
37998;DHT22;24079;51.824;4.682;2022-11-27T06:00:04;7.70;99.90
37998;DHT22;24079;51.824;4.682;2022-11-27T06:02:30;7.70;99.90
37998;DHT22;24079;51.824;4.682;2022-11-27T06:04:55;7.60;99.90
37998;DHT22;24079;51.824;4.682;2022-11-27T06:07:21;7.70;99.90
37998;DHT22;24079;51.824;4.682;2022-11-27T06:09:47;7.70;99.90
37998;DHT22;24079;51.824;4.682;2022-11-27T06:12:12;7.70;99.90
37998;DHT22;24079;51.824;4.682;2022-11-27T06:14:38;7.60;99.90
37998;DHT22;24079;51.824;4.682;2022-11-27T06:17:03;7.60;99.90
37998;DHT22;24079;51.824;4.682;2022-11-27T06:19:29;7.60;99.90
37998;DHT22;24079;51.824;4.682;2022-11-27T06:21:55;7.60;99.90
37998;DHT22;24079;51.824;4.682;2022-11-27T06:24:20;7.60;99.90
37998;DHT22;24079;51.824;4.682;2022-11-27T06:26:46;7.60;99.90
37998;DHT22;24079;51.824;4.682;2022-11-27T06:29:12;7.60;99.90
37998;DHT22;24079;51.824;4.682;2022-11-27T06:31:38;7.60;99.90
37998;DHT22;24079;51.824;4.682;2022-11-27T06:34:04;7.60;99.90
37998;DHT22;24079;51.824;4.682;2022-11-27T06:36:33;7.60;99.90
37998;DHT22;24079;51.824;4.682;2022-11-27T06:39:00;7.60;99.90
37998;DHT22;24079;51.824;4.682;2022-11-27T06:41:26;7.60;99.90
37998;DHT22;24079;51.824;4.682;2022-11-27T06:43:53;7.60;99.90
37998;DHT22;24079;51.824;4.682;2022-11-27T06:46:21;7.60;99.90
37998;DHT22;24079;51.824;4.682;2022-11-27T06:48:48;7.60;99.90
37998;DHT22;24079;51.824;4.682;2022-11-27T06:51:16;7.60;99.90
37998;DHT22;24079;51.824;4.682;2022-11-27T06:53:43;7.70;99.90
37998;DHT22;24079;51.824;4.682;2022-11-27T06:56:11;7.70;99.90
37998;DHT22;24079;51.824;4.682;2022-11-27T06:58:37;7.70;99.90
37998;DHT22;24079;51.824;4.682;2022-11-27T07:01:05;7.70;99.90
37998;DHT22;24079;51.824;4.682;2022-11-27T07:03:31;7.70;99.90
37998;DHT22;24079;51.824;4.682;2022-11-27T07:06:01;7.70;99.90
37998;DHT22;24079;51.824;4.682;2022-11-27T07:08:27;7.70;99.90
37998;DHT22;24079;51.824;4.682;2022-11-27T07:10:53;7.70;99.90
37998;DHT22;24079;51.824;4.682;2022-11-27T07:13:18;7.70;99.90
37998;DHT22;24079;51.824;4.682;2022-11-27T07:15:44;7.60;99.90
37998;DHT22;24079;51.824;4.682;2022-11-27T07:18:10;7.60;99.90
37998;DHT22;24079;51.824;4.682;2022-11-27T07:20:35;7.70;99.90
37998;DHT22;24079;51.824;4.682;2022-11-27T07:23:01;7.60;99.90
37998;DHT22;24079;51.824;4.682;2022-11-27T07:25:27;7.70;99.90
37998;DHT22;24079;51.824;4.682;2022-11-27T07:27:54;7.70;99.90
37998;DHT22;24079;51.824;4.682;2022-11-27T07:30:19;7.70;99.90
37998;DHT22;24079;51.824;4.682;2022-11-27T07:32:45;7.70;99.90
37998;DHT22;24079;51.824;4.682;2022-11-27T07:35:11;7.70;99.90
37998;DHT22;24079;51.824;4.682;2022-11-27T07:37:37;7.70;99.90
37998;DHT22;24079;51.824;4.682;2022-11-27T07:40:02;7.70;99.90
37998;DHT22;24079;51.824;4.682;2022-11-27T07:42:29;7.70;99.90
37998;DHT22;24079;51.824;4.682;2022-11-27T07:44:54;7.70;99.90
37998;DHT22;24079;51.824;4.682;2022-11-27T07:47:20;7.70;99.90
37998;DHT22;24079;51.824;4.682;2022-11-27T07:49:46;7.70;99.90
37998;DHT22;24079;51.824;4.682;2022-11-27T07:52:11;7.80;99.90
37998;DHT22;24079;51.824;4.682;2022-11-27T07:54:37;7.80;99.90
37998;DHT22;24079;51.824;4.682;2022-11-27T07:57:03;7.80;99.90
37998;DHT22;24079;51.824;4.682;2022-11-27T07:59:29;7.80;99.90
37998;DHT22;24079;51.824;4.682;2022-11-27T08:01:55;7.80;99.90
37998;DHT22;24079;51.824;4.682;2022-11-27T08:04:20;7.80;99.90
37998;DHT22;24079;51.824;4.682;2022-11-27T08:06:47;7.80;99.90
37998;DHT22;24079;51.824;4.682;2022-11-27T08:09:13;7.80;99.90
37998;DHT22;24079;51.824;4.682;2022-11-27T08:11:38;7.80;99.90
37998;DHT22;24079;51.824;4.682;2022-11-27T08:14:06;7.80;99.90
37998;DHT22;24079;51.824;4.682;2022-11-27T08:16:32;7.80;99.90
37998;DHT22;24079;51.824;4.682;2022-11-27T08:18:58;7.90;99.90
37998;DHT22;24079;51.824;4.682;2022-11-27T08:21:24;7.90;99.90
37998;DHT22;24079;51.824;4.682;2022-11-27T08:23:50;7.90;99.90
37998;DHT22;24079;51.824;4.682;2022-11-27T08:26:16;7.90;99.90
37998;DHT22;24079;51.824;4.682;2022-11-27T08:28:42;7.90;99.90
37998;DHT22;24079;51.824;4.682;2022-11-27T08:31:10;8.00;99.90
37998;DHT22;24079;51.824;4.682;2022-11-27T08:33:36;7.90;99.90
37998;DHT22;24079;51.824;4.682;2022-11-27T08:36:03;8.00;99.90
37998;DHT22;24079;51.824;4.682;2022-11-27T08:38:28;7.90;99.90
37998;DHT22;24079;51.824;4.682;2022-11-27T08:40:59;7.90;99.90
37998;DHT22;24079;51.824;4.682;2022-11-27T08:43:25;7.90;99.90
37998;DHT22;24079;51.824;4.682;2022-11-27T08:45:51;7.90;99.90
37998;DHT22;24079;51.824;4.682;2022-11-27T08:48:18;7.90;99.90
37998;DHT22;24079;51.824;4.682;2022-11-27T08:50:43;8.00;99.90
37998;DHT22;24079;51.824;4.682;2022-11-27T08:53:09;8.00;99.90
37998;DHT22;24079;51.824;4.682;2022-11-27T08:55:34;8.00;99.90
37998;DHT22;24079;51.824;4.682;2022-11-27T08:58:00;8.00;99.90
37998;DHT22;24079;51.824;4.682;2022-11-27T09:00:26;8.00;99.90
37998;DHT22;24079;51.824;4.682;2022-11-27T09:02:51;8.00;99.90
37998;DHT22;24079;51.824;4.682;2022-11-27T09:05:17;8.00;99.90
37998;DHT22;24079;51.824;4.682;2022-11-27T09:07:42;8.00;99.90
37998;DHT22;24079;51.824;4.682;2022-11-27T09:10:09;8.00;99.90
37998;DHT22;24079;51.824;4.682;2022-11-27T09:12:34;8.00;99.90
37998;DHT22;24079;51.824;4.682;2022-11-27T09:15:00;8.00;99.90
37998;DHT22;24079;51.824;4.682;2022-11-27T09:17:26;8.00;99.90
37998;DHT22;24079;51.824;4.682;2022-11-27T09:19:51;8.10;99.90
37998;DHT22;24079;51.824;4.682;2022-11-27T09:22:17;8.10;99.90
37998;DHT22;24079;51.824;4.682;2022-11-27T09:24:43;8.10;99.90
37998;DHT22;24079;51.824;4.682;2022-11-27T09:27:08;8.10;99.90
37998;DHT22;24079;51.824;4.682;2022-11-27T09:29:34;8.10;99.90
37998;DHT22;24079;51.824;4.682;2022-11-27T09:32:00;8.10;99.90
37998;DHT22;24079;51.824;4.682;2022-11-27T09:34:26;8.10;99.90
37998;DHT22;24079;51.824;4.682;2022-11-27T09:36:51;8.10;99.90
37998;DHT22;24079;51.824;4.682;2022-11-27T09:39:17;8.20;99.90
37998;DHT22;24079;51.824;4.682;2022-11-27T09:41:52;8.20;99.90
37998;DHT22;24079;51.824;4.682;2022-11-27T09:44:38;8.20;99.90
37998;DHT22;24079;51.824;4.682;2022-11-27T09:49:55;8.30;99.90
37998;DHT22;24079;51.824;4.682;2022-11-27T09:55:20;8.30;99.90
37998;DHT22;24079;51.824;4.682;2022-11-27T10:00:25;8.40;99.90
37998;DHT22;24079;51.824;4.682;2022-11-27T10:02:51;8.30;99.90
37998;DHT22;24079;51.824;4.682;2022-11-27T10:05:21;8.20;99.90
37998;DHT22;24079;51.824;4.682;2022-11-27T10:16:12;8.30;99.90
37998;DHT22;24079;51.824;4.682;2022-11-27T10:18:47;8.30;99.90
37998;DHT22;24079;51.824;4.682;2022-11-27T10:21:26;8.30;99.90
37998;DHT22;24079;51.824;4.682;2022-11-27T10:26:53;8.30;99.90
37998;DHT22;24079;51.824;4.682;2022-11-27T10:29:38;8.30;99.90
37998;DHT22;24079;51.824;4.682;2022-11-27T10:32:14;8.30;99.90
37998;DHT22;24079;51.824;4.682;2022-11-27T10:34:44;8.30;99.90
37998;DHT22;24079;51.824;4.682;2022-11-27T10:37:21;8.40;99.90
37998;DHT22;24079;51.824;4.682;2022-11-27T10:40:02;8.30;99.90
37998;DHT22;24079;51.824;4.682;2022-11-27T10:47:48;8.40;99.90
37998;DHT22;24079;51.824;4.682;2022-11-27T10:50:15;8.40;99.90
37998;DHT22;24079;51.824;4.682;2022-11-27T10:52:59;8.50;99.90
37998;DHT22;24079;51.824;4.682;2022-11-27T11:01:15;8.50;99.90
37998;DHT22;24079;51.824;4.682;2022-11-27T11:03:41;8.50;99.90
37998;DHT22;24079;51.824;4.682;2022-11-27T11:06:22;8.60;99.90
37998;DHT22;24079;51.824;4.682;2022-11-27T11:09:04;8.60;99.90
37998;DHT22;24079;51.824;4.682;2022-11-27T11:11:30;8.60;99.90
37998;DHT22;24079;51.824;4.682;2022-11-27T11:13:56;8.60;99.90
37998;DHT22;24079;51.824;4.682;2022-11-27T11:16:24;8.60;99.90
37998;DHT22;24079;51.824;4.682;2022-11-27T11:18:53;8.60;99.90
37998;DHT22;24079;51.824;4.682;2022-11-27T11:21:38;8.60;99.90
37998;DHT22;24079;51.824;4.682;2022-11-27T11:24:14;8.60;99.90
37998;DHT22;24079;51.824;4.682;2022-11-27T11:31:56;8.60;99.90
37998;DHT22;24079;51.824;4.682;2022-11-27T11:34:28;8.60;99.90
37998;DHT22;24079;51.824;4.682;2022-11-27T11:37:04;8.70;99.90
37998;DHT22;24079;51.824;4.682;2022-11-27T11:39:43;8.70;99.90
37998;DHT22;24079;51.824;4.682;2022-11-27T11:42:18;8.80;99.90
37998;DHT22;24079;51.824;4.682;2022-11-27T11:45:31;8.80;99.90
37998;DHT22;24079;51.824;4.682;2022-11-27T11:47:49;8.80;99.90
37998;DHT22;24079;51.824;4.682;2022-11-27T11:56:23;8.90;99.90
37998;DHT22;24079;51.824;4.682;2022-11-27T12:12:19;9.00;99.90
37998;DHT22;24079;51.824;4.682;2022-11-27T12:15:02;9.00;99.90
37998;DHT22;24079;51.824;4.682;2022-11-27T12:20:51;8.90;99.90
37998;DHT22;24079;51.824;4.682;2022-11-27T12:29:02;9.10;99.90
37998;DHT22;24079;51.824;4.682;2022-11-27T12:43:22;9.00;99.90
37998;DHT22;24079;51.824;4.682;2022-11-27T12:46:13;9.00;99.90
37998;DHT22;24079;51.824;4.682;2022-11-27T12:48:45;8.90;99.90
37998;DHT22;24079;51.824;4.682;2022-11-27T12:51:19;8.90;99.90
37998;DHT22;24079;51.824;4.682;2022-11-27T12:53:53;8.90;99.90
37998;DHT22;24079;51.824;4.682;2022-11-27T12:56:39;9.00;99.90
37998;DHT22;24079;51.824;4.682;2022-11-27T13:02:25;8.90;99.90
37998;DHT22;24079;51.824;4.682;2022-11-27T13:05:04;8.90;99.90
37998;DHT22;24079;51.824;4.682;2022-11-27T13:10:39;8.90;99.90
37998;DHT22;24079;51.824;4.682;2022-11-27T13:13:17;8.90;99.90
37998;DHT22;24079;51.824;4.682;2022-11-27T13:15:49;8.80;99.90
37998;DHT22;24079;51.824;4.682;2022-11-27T13:18:22;8.80;99.90
37998;DHT22;24079;51.824;4.682;2022-11-27T13:20:51;8.90;99.90
37998;DHT22;24079;51.824;4.682;2022-11-27T13:23:18;8.90;99.90
37998;DHT22;24079;51.824;4.682;2022-11-27T13:25:47;8.90;99.90
37998;DHT22;24079;51.824;4.682;2022-11-27T13:28:22;8.90;99.90
37998;DHT22;24079;51.824;4.682;2022-11-27T13:30:51;8.90;99.90
37998;DHT22;24079;51.824;4.682;2022-11-27T13:33:33;8.90;99.90
37998;DHT22;24079;51.824;4.682;2022-11-27T13:36:01;8.90;99.90
37998;DHT22;24079;51.824;4.682;2022-11-27T13:38:28;8.90;99.90
37998;DHT22;24079;51.824;4.682;2022-11-27T13:40:58;8.90;99.90
37998;DHT22;24079;51.824;4.682;2022-11-27T13:43:44;8.90;99.90
37998;DHT22;24079;51.824;4.682;2022-11-27T13:46:26;8.90;99.90
37998;DHT22;24079;51.824;4.682;2022-11-27T13:48:55;8.90;99.90
37998;DHT22;24079;51.824;4.682;2022-11-27T13:51:32;8.90;99.90
37998;DHT22;24079;51.824;4.682;2022-11-27T13:56:37;8.90;99.90
37998;DHT22;24079;51.824;4.682;2022-11-27T13:59:18;8.90;99.90
37998;DHT22;24079;51.824;4.682;2022-11-27T14:01:57;8.90;99.90
37998;DHT22;24079;51.824;4.682;2022-11-27T14:04:25;8.90;99.90
37998;DHT22;24079;51.824;4.682;2022-11-27T14:07:10;8.90;99.90
37998;DHT22;24079;51.824;4.682;2022-11-27T14:09:42;8.90;99.90
37998;DHT22;24079;51.824;4.682;2022-11-27T14:15:06;8.90;99.90
37998;DHT22;24079;51.824;4.682;2022-11-27T14:17:44;8.80;99.90
37998;DHT22;24079;51.824;4.682;2022-11-27T14:25:33;8.90;99.90
37998;DHT22;24079;51.824;4.682;2022-11-27T14:28:30;8.90;99.90
37998;DHT22;24079;51.824;4.682;2022-11-27T14:31:00;8.90;99.90
37998;DHT22;24079;51.824;4.682;2022-11-27T14:33:33;8.90;99.90
37998;DHT22;24079;51.824;4.682;2022-11-27T14:36:02;8.90;99.90
37998;DHT22;24079;51.824;4.682;2022-11-27T14:38:30;8.90;99.90
37998;DHT22;24079;51.824;4.682;2022-11-27T14:41:08;8.90;99.90
37998;DHT22;24079;51.824;4.682;2022-11-27T14:43:34;9.00;99.90
37998;DHT22;24079;51.824;4.682;2022-11-27T14:46:00;8.90;99.90
37998;DHT22;24079;51.824;4.682;2022-11-27T14:48:43;8.90;99.90
37998;DHT22;24079;51.824;4.682;2022-11-27T14:51:18;8.90;99.90
37998;DHT22;24079;51.824;4.682;2022-11-27T14:53:50;8.90;99.90
37998;DHT22;24079;51.824;4.682;2022-11-27T14:56:17;8.90;99.90
37998;DHT22;24079;51.824;4.682;2022-11-27T14:58:50;8.90;99.90
37998;DHT22;24079;51.824;4.682;2022-11-27T15:01:32;8.90;99.90
37998;DHT22;24079;51.824;4.682;2022-11-27T15:04:03;9.00;99.90
37998;DHT22;24079;51.824;4.682;2022-11-27T15:06:42;8.90;99.90
37998;DHT22;24079;51.824;4.682;2022-11-27T15:09:20;9.00;99.90
37998;DHT22;24079;51.824;4.682;2022-11-27T15:11:53;9.00;99.90
37998;DHT22;24079;51.824;4.682;2022-11-27T15:14:19;8.90;99.90
37998;DHT22;24079;51.824;4.682;2022-11-27T15:16:48;8.90;99.90
37998;DHT22;24079;51.824;4.682;2022-11-27T15:19:25;8.90;99.90
37998;DHT22;24079;51.824;4.682;2022-11-27T15:21:52;8.90;99.90
37998;DHT22;24079;51.824;4.682;2022-11-27T15:24:33;8.90;99.90
37998;DHT22;24079;51.824;4.682;2022-11-27T15:29:38;8.90;99.90
37998;DHT22;24079;51.824;4.682;2022-11-27T15:32:23;8.90;99.90
37998;DHT22;24079;51.824;4.682;2022-11-27T15:34:50;8.90;99.90
37998;DHT22;24079;51.824;4.682;2022-11-27T15:37:26;8.90;99.90
37998;DHT22;24079;51.824;4.682;2022-11-27T15:39:56;8.90;99.90
37998;DHT22;24079;51.824;4.682;2022-11-27T15:42:23;8.90;99.90
37998;DHT22;24079;51.824;4.682;2022-11-27T15:44:59;8.90;99.90
37998;DHT22;24079;51.824;4.682;2022-11-27T15:49:54;8.90;99.90
37998;DHT22;24079;51.824;4.682;2022-11-27T15:52:20;8.90;99.90
37998;DHT22;24079;51.824;4.682;2022-11-27T15:54:45;8.90;99.90
37998;DHT22;24079;51.824;4.682;2022-11-27T15:57:11;8.90;99.90
37998;DHT22;24079;51.824;4.682;2022-11-27T15:59:37;8.90;99.90
37998;DHT22;24079;51.824;4.682;2022-11-27T16:02:03;8.90;99.90
37998;DHT22;24079;51.824;4.682;2022-11-27T16:04:29;8.80;99.90
37998;DHT22;24079;51.824;4.682;2022-11-27T16:06:55;8.90;99.90
37998;DHT22;24079;51.824;4.682;2022-11-27T16:09:20;8.80;99.90
37998;DHT22;24079;51.824;4.682;2022-11-27T16:11:46;8.90;99.90
37998;DHT22;24079;51.824;4.682;2022-11-27T16:14:12;8.90;99.90
37998;DHT22;24079;51.824;4.682;2022-11-27T16:16:38;8.90;99.90
37998;DHT22;24079;51.824;4.682;2022-11-27T16:19:04;8.90;99.90
37998;DHT22;24079;51.824;4.682;2022-11-27T16:21:32;8.90;99.90
37998;DHT22;24079;51.824;4.682;2022-11-27T16:24:03;8.90;99.90
37998;DHT22;24079;51.824;4.682;2022-11-27T16:26:29;9.00;99.90
37998;DHT22;24079;51.824;4.682;2022-11-27T16:28:55;9.00;99.90
37998;DHT22;24079;51.824;4.682;2022-11-27T16:31:22;9.00;99.90
37998;DHT22;24079;51.824;4.682;2022-11-27T16:33:48;9.10;99.90
37998;DHT22;24079;51.824;4.682;2022-11-27T16:36:15;9.10;99.90
37998;DHT22;24079;51.824;4.682;2022-11-27T16:38:42;9.10;99.90
37998;DHT22;24079;51.824;4.682;2022-11-27T16:41:15;9.10;99.90
37998;DHT22;24079;51.824;4.682;2022-11-27T16:43:47;9.00;99.90
37998;DHT22;24079;51.824;4.682;2022-11-27T16:46:17;9.00;99.90
37998;DHT22;24079;51.824;4.682;2022-11-27T16:48:45;9.10;99.90
37998;DHT22;24079;51.824;4.682;2022-11-27T16:51:13;9.00;99.90
37998;DHT22;24079;51.824;4.682;2022-11-27T16:53:42;9.10;99.90
37998;DHT22;24079;51.824;4.682;2022-11-27T16:56:09;9.10;99.90
37998;DHT22;24079;51.824;4.682;2022-11-27T16:58:36;9.10;99.90
37998;DHT22;24079;51.824;4.682;2022-11-27T17:01:07;9.10;99.90
37998;DHT22;24079;51.824;4.682;2022-11-27T17:03:34;9.10;99.90
37998;DHT22;24079;51.824;4.682;2022-11-27T17:05:59;9.00;99.90
37998;DHT22;24079;51.824;4.682;2022-11-27T17:08:25;9.00;99.90
37998;DHT22;24079;51.824;4.682;2022-11-27T17:10:51;8.90;99.90
37998;DHT22;24079;51.824;4.682;2022-11-27T17:13:17;8.90;99.90
37998;DHT22;24079;51.824;4.682;2022-11-27T17:15:43;8.90;99.90
37998;DHT22;24079;51.824;4.682;2022-11-27T17:18:09;8.80;99.90
37998;DHT22;24079;51.824;4.682;2022-11-27T17:20:35;8.80;99.90
37998;DHT22;24079;51.824;4.682;2022-11-27T17:23:01;8.70;99.90
37998;DHT22;24079;51.824;4.682;2022-11-27T17:25:28;8.70;99.90
37998;DHT22;24079;51.824;4.682;2022-11-27T17:27:54;8.70;99.90
37998;DHT22;24079;51.824;4.682;2022-11-27T17:30:20;8.60;99.90
37998;DHT22;24079;51.824;4.682;2022-11-27T17:32:45;8.60;99.90
37998;DHT22;24079;51.824;4.682;2022-11-27T17:35:11;8.60;99.90
37998;DHT22;24079;51.824;4.682;2022-11-27T17:37:37;8.60;99.90
37998;DHT22;24079;51.824;4.682;2022-11-27T17:40:03;8.50;99.90
37998;DHT22;24079;51.824;4.682;2022-11-27T17:42:29;8.50;99.90
37998;DHT22;24079;51.824;4.682;2022-11-27T17:44:55;8.50;99.90
37998;DHT22;24079;51.824;4.682;2022-11-27T17:47:20;8.50;99.90
37998;DHT22;24079;51.824;4.682;2022-11-27T17:49:46;8.50;99.90
37998;DHT22;24079;51.824;4.682;2022-11-27T17:52:12;8.40;99.90
37998;DHT22;24079;51.824;4.682;2022-11-27T17:54:37;8.50;99.90
37998;DHT22;24079;51.824;4.682;2022-11-27T17:57:03;8.40;99.90
37998;DHT22;24079;51.824;4.682;2022-11-27T17:59:28;8.40;99.90
37998;DHT22;24079;51.824;4.682;2022-11-27T18:01:54;8.40;99.90
37998;DHT22;24079;51.824;4.682;2022-11-27T18:04:20;8.40;99.90
37998;DHT22;24079;51.824;4.682;2022-11-27T18:06:46;8.40;99.90
37998;DHT22;24079;51.824;4.682;2022-11-27T18:09:11;8.30;99.90
37998;DHT22;24079;51.824;4.682;2022-11-27T18:11:37;8.30;99.90